Airfield :
LOGIN :

Register | Disclaimer

   EN    FR    IT 

 










Legend :    VFR   Marginal VFR   IFR   Intensive IFR   Very Intensive IFR
Visi :
Ceiling :
>= 8 km
>= 3000ft
5 to 8 km
1000 to 3000 ft
1500m to 5 km
500 to 1000 ft
800 to 1500m
200 to 500 ft
< 800m
< 200 ft
Symbols :   Thunderstorms  Fog  Heavy snow  Heavy precipitations  Wind > 20 kt
SIGMETs :     Misc.  Thunderstorms  Icing  Turbulence  Mountain Waves  Volcanic Ashes






- Airport Elevation : 29 ft
- IATA code : SVG


ENZV - Sola

CURRENT METAR :
  • 031750Z 27013KT 9999 3000E SHSNRA FEW004CB SCT030 BKN040 02/M01 Q1010 TEMPO 1500 SHSNRAGS VV010

EXPIRED METARs :
  • 031720Z 27010KT 9999 VCSH FEW008CB SCT070 04/M02 Q1010 TEMPO 1500 SHSNRAGS VV010
  • 031650Z 29011KT 9999 VCSH FEW008CB SCT070 04/M01 Q1009 TEMPO 30015G25KT 0800 SHSNRAGS VV008
  • 031620Z 28013KT 9999 VCSH FEW008CB SCT070 04/M01 Q1009 TEMPO 30018G28KT 0800 SHSNRAGS VV006
  • 031550Z 32014KT 9999 VCSH FEW008CB SCT022 BKN060 03/M01 Q1009 TEMPO 30018G28KT 0800 SHSNRAGS VV006
  • 031520Z 32011KT 280V340 9999 VCSH FEW008CB SCT018 BKN070 04/M01 Q1008 TEMPO 30018G28KT 0800 SHSNRAGS VV006

TAF TAF ENZV
Valid from the 03 at 18:00 until the 04 at 18:00 UTC


0318/0418 29012KT 9999 -SHRASN FEW012CB SCT025
TEMPO 0318/0324 2000 SHSNRAGS VV010
BECMG 0403/0406 VRB05KT
BECMG 0411/0413 16015KT



MET'MAP, your aeronautical weather chart ! - Copyright ORBIFLY December 2007 - Disclaimer

ORBIFLY MET'MAP TEAM :

Programming & Development : Alexandra Zaïnal
Concept & original design : Baudouin d'Aumeries
Assistance for programming : Marc-Olivier Méhu
Technical & hardware support : Manuel Goepfert

Contact : metmap@orbifly.com




SOURCES & CREDITS :

   NOAA